createdAt,value
2024-03-16T00:01:02.054Z,86.47
2024-03-16T00:03:30.010Z,91.57
2024-03-16T00:05:57.682Z,89.53
2024-03-16T00:08:24.966Z,81.13
2024-03-16T00:10:52.056Z,95.47
2024-03-16T00:13:18.773Z,76.07
2024-03-16T00:15:51.023Z,78.85
2024-03-16T00:18:18.048Z,86.40
2024-03-16T00:20:45.084Z,83.93
2024-03-16T00:23:11.759Z,76.32
2024-03-16T00:25:38.639Z,78.47
2024-03-16T00:28:05.942Z,76.18
2024-03-16T00:30:32.835Z,82.25
2024-03-16T00:32:59.729Z,77.28
2024-03-16T00:35:27.551Z,74.88
2024-03-16T00:37:55.408Z,82.30
2024-03-16T00:40:22.178Z,79.18
2024-03-16T00:42:49.022Z,78.82
2024-03-16T00:45:15.643Z,81.55
2024-03-16T00:47:42.389Z,81.30
2024-03-16T00:50:09.306Z,72.38
2024-03-16T00:52:54.587Z,74.82
2024-03-16T00:55:21.227Z,81.78
2024-03-16T00:57:47.902Z,88.38
2024-03-16T01:00:15.886Z,78.93
2024-03-16T01:02:43.195Z,72.40
2024-03-16T01:05:10.273Z,78.90
2024-03-16T01:07:37.181Z,80.05
2024-03-16T01:10:04.672Z,77.88
2024-03-16T01:12:31.367Z,80.75
2024-03-16T01:14:58.588Z,77.60
2024-03-16T01:17:25.571Z,75.68
2024-03-16T01:19:52.258Z,83.15
2024-03-16T01:22:19.061Z,77.28
2024-03-16T01:24:45.845Z,82.28
2024-03-16T01:27:12.481Z,77.88
2024-03-16T01:29:39.307Z,74.50
2024-03-16T01:32:09.603Z,75.55
2024-03-16T01:34:36.813Z,74.18
2024-03-16T01:37:03.737Z,79.60
2024-03-16T01:39:30.908Z,72.40
2024-03-16T01:41:57.833Z,67.40
2024-03-16T01:44:24.675Z,76.10
2024-03-16T01:46:51.483Z,68.68
2024-03-16T01:49:18.140Z,78.35
2024-03-16T01:51:44.809Z,71.80
2024-03-16T01:54:11.837Z,66.70
2024-03-16T01:56:38.654Z,72.70
2024-03-16T01:59:05.377Z,65.72
2024-03-16T02:01:32.728Z,72.70
2024-03-16T02:03:59.756Z,70.53
2024-03-16T02:06:28.383Z,71.82
2024-03-16T02:08:55.405Z,80.28
2024-03-16T02:11:23.136Z,63.80
2024-03-16T02:13:50.365Z,67.88
2024-03-16T02:16:17.162Z,74.32
2024-03-16T02:18:44.193Z,71.70
2024-03-16T02:21:11.699Z,70.43
2024-03-16T02:23:40.888Z,74.57
2024-03-16T02:26:08.749Z,77.07
2024-03-16T02:28:35.693Z,75.53
2024-03-16T02:31:02.711Z,76.15
2024-03-16T02:33:29.893Z,74.20
2024-03-16T02:35:56.837Z,73.68
2024-03-16T02:38:24.014Z,76.78
2024-03-16T02:40:50.784Z,72.22
2024-03-16T02:43:17.589Z,79.00
2024-03-16T02:45:44.375Z,75.53
2024-03-16T02:48:12.481Z,72.82
2024-03-16T02:50:39.283Z,64.57
2024-03-16T02:53:05.905Z,78.03
2024-03-16T02:55:32.485Z,75.70
2024-03-16T02:57:59.982Z,70.00
2024-03-16T03:00:28.208Z,74.85
2024-03-16T03:02:54.973Z,67.30
2024-03-16T03:05:23.738Z,75.60
2024-03-16T03:07:50.692Z,76.43
2024-03-16T03:10:18.020Z,99.07
2024-03-16T03:12:46.194Z,106.85
2024-03-16T03:15:13.040Z,93.50
2024-03-16T03:17:40.572Z,105.38
2024-03-16T03:20:10.328Z,100.20
2024-03-16T03:22:37.468Z,101.95
2024-03-16T03:25:04.986Z,99.07
2024-03-16T03:27:32.076Z,109.85
2024-03-16T03:29:58.793Z,98.55
2024-03-16T03:32:25.640Z,90.80
2024-03-16T03:34:52.358Z,93.20
2024-03-16T03:37:19.118Z,86.10
2024-03-16T03:39:47.689Z,74.78
2024-03-16T03:42:15.864Z,84.57
2024-03-16T03:44:51.306Z,80.45
2024-03-16T03:47:18.348Z,89.65
2024-03-16T03:49:51.850Z,94.78
2024-03-16T03:52:19.074Z,90.97
2024-03-16T03:54:46.076Z,85.32
2024-03-16T03:57:12.819Z,89.85
2024-03-16T03:59:39.501Z,104.80
2024-03-16T04:02:06.241Z,83.05
2024-03-16T04:04:32.884Z,72.85
2024-03-16T04:06:59.667Z,87.88
2024-03-16T04:09:26.458Z,75.40
2024-03-16T04:11:53.157Z,89.85
2024-03-16T04:14:20.656Z,77.25
2024-03-16T04:16:49.338Z,106.57
2024-03-16T04:19:17.380Z,110.82
2024-03-16T04:21:45.027Z,104.82
2024-03-16T04:24:11.823Z,106.13
2024-03-16T04:26:39.031Z,106.65
2024-03-16T04:29:07.079Z,111.47
2024-03-16T04:31:34.010Z,111.07
2024-03-16T04:34:00.839Z,115.32
2024-03-16T04:36:27.685Z,99.68
2024-03-16T04:38:54.315Z,104.88
2024-03-16T04:41:21.124Z,116.85
2024-03-16T04:43:48.519Z,106.72
2024-03-16T04:46:15.836Z,111.82
2024-03-16T04:48:42.608Z,99.53
2024-03-16T04:51:09.497Z,103.00
2024-03-16T04:53:36.177Z,94.80
2024-03-16T04:56:03.099Z,117.90
2024-03-16T04:58:29.967Z,106.55
2024-03-16T05:00:56.704Z,117.85
2024-03-16T05:03:23.493Z,126.35
2024-03-16T05:05:53.021Z,124.65
2024-03-16T05:08:19.608Z,119.80
2024-03-16T05:10:53.244Z,117.97
2024-03-16T05:13:20.014Z,109.28
2024-03-16T05:15:46.743Z,108.35
2024-03-16T05:18:15.534Z,104.93
2024-03-16T05:20:42.732Z,109.07
2024-03-16T05:23:09.605Z,106.68
2024-03-16T05:25:36.324Z,111.45
2024-03-16T05:28:03.233Z,109.13
2024-03-16T05:30:30.186Z,114.57
2024-03-16T05:32:57.207Z,111.95
2024-03-16T05:35:29.306Z,121.20
2024-03-16T05:40:23.521Z,104.30
2024-03-16T05:42:50.329Z,117.93
2024-03-16T05:45:17.292Z,120.70
2024-03-16T05:47:44.793Z,124.15
2024-03-16T05:50:11.487Z,111.68
2024-03-16T05:52:38.987Z,115.47
2024-03-16T05:55:06.249Z,118.68
2024-03-16T05:57:33.025Z,115.53
2024-03-16T05:59:59.701Z,118.18
2024-03-16T06:02:27.978Z,122.97
2024-03-16T06:04:54.640Z,127.25
2024-03-16T06:07:21.776Z,128.18
2024-03-16T06:09:48.563Z,121.78
2024-03-16T06:12:15.317Z,112.57
2024-03-16T06:14:41.929Z,115.50
2024-03-16T06:17:08.629Z,127.18
2024-03-16T06:19:35.220Z,123.70
2024-03-16T06:22:03.769Z,128.93
2024-03-16T06:24:32.047Z,141.75
2024-03-16T06:27:06.109Z,139.43
2024-03-16T06:29:33.476Z,124.38
2024-03-16T06:32:10.024Z,185.10
2024-03-16T06:34:36.858Z,163.00
2024-03-16T06:37:04.486Z,158.23
2024-03-16T06:39:31.263Z,133.02
2024-03-16T06:41:58.227Z,140.98
2024-03-16T06:44:24.989Z,124.90
2024-03-16T06:46:51.699Z,108.45
2024-03-16T06:49:18.624Z,109.60
2024-03-16T06:51:45.401Z,104.35
2024-03-16T06:54:13.618Z,100.78
2024-03-16T06:56:40.731Z,107.25
2024-03-16T06:59:07.400Z,102.40
2024-03-16T07:01:34.099Z,118.30
2024-03-16T07:04:00.961Z,107.55
2024-03-16T07:06:27.543Z,108.15
2024-03-16T07:08:54.234Z,101.32
2024-03-16T07:11:21.177Z,108.93
2024-03-16T07:13:47.929Z,107.03
2024-03-16T07:16:16.233Z,104.57
2024-03-16T07:18:44.577Z,103.78
2024-03-16T07:21:11.652Z,95.93
2024-03-16T07:23:38.388Z,99.68
2024-03-16T07:26:06.888Z,104.90
2024-03-16T07:28:35.552Z,103.53
2024-03-16T07:31:04.048Z,99.28
2024-03-16T07:33:31.399Z,91.50
2024-03-16T07:35:59.462Z,101.72
2024-03-16T07:38:26.158Z,97.32
2024-03-16T07:40:53.339Z,109.95
2024-03-16T07:43:21.566Z,96.20
2024-03-16T07:45:51.602Z,110.97
2024-03-16T07:48:18.572Z,120.25
2024-03-16T07:50:45.189Z,88.78
2024-03-16T07:53:12.268Z,81.82
2024-03-16T07:55:39.583Z,90.25
2024-03-16T07:58:06.270Z,71.57
2024-03-16T08:00:33.040Z,76.68
2024-03-16T08:02:59.915Z,78.63
2024-03-16T08:05:26.534Z,73.25
2024-03-16T08:07:53.230Z,68.88
2024-03-16T08:10:20.030Z,62.22
2024-03-16T08:12:47.007Z,71.50
2024-03-16T08:15:14.273Z,62.60
2024-03-16T08:17:40.984Z,53.80
2024-03-16T08:20:09.465Z,58.80
2024-03-16T08:22:36.318Z,53.33
2024-03-16T08:25:03.232Z,54.28
2024-03-16T08:27:33.464Z,62.13
2024-03-16T08:30:02.318Z,50.90
2024-03-16T08:32:30.750Z,51.03
2024-03-16T08:34:58.068Z,56.38
2024-03-16T08:37:25.358Z,53.28
2024-03-16T08:39:52.216Z,51.15
2024-03-16T08:42:18.848Z,51.15
2024-03-16T08:44:45.565Z,57.90
2024-03-16T08:47:12.225Z,52.75
2024-03-16T08:49:38.828Z,48.15
2024-03-16T08:52:05.589Z,48.15
2024-03-16T08:54:33.826Z,44.30
2024-03-16T08:57:01.599Z,39.13
2024-03-16T08:59:29.081Z,51.38
2024-03-16T09:01:55.928Z,44.80
2024-03-16T09:04:22.824Z,46.30
2024-03-16T09:06:49.406Z,45.67
2024-03-16T09:09:17.553Z,46.72
2024-03-16T09:11:44.758Z,46.42
2024-03-16T09:14:11.662Z,42.90
2024-03-16T09:16:41.919Z,42.47
2024-03-16T09:19:09.153Z,44.30
2024-03-16T09:21:36.061Z,59.83
2024-03-16T09:24:02.781Z,56.33
2024-03-16T09:26:29.435Z,90.47
2024-03-16T09:28:56.426Z,92.53
2024-03-16T09:31:26.661Z,31.10
2024-03-16T09:33:53.703Z,41.25
2024-03-16T09:36:20.942Z,23.52
2024-03-16T09:38:48.801Z,50.53
2024-03-16T09:41:19.622Z,44.55
